Time;durP1;ratioP1;P1;durP2;ratioP2;P2;SDS_P1;SDS_P2;PMS_P1;PMS_P2;Temp;Humidity;BMP_temperature;BMP_pressure;BME280_temperature;BME280_humidity;BME280_pressure;Samples;Min_cycle;Max_cycle;Signal;HPM_P1;HPM_P2
2022/12/12 00:02:07;;;;;;;27.35;14.82;;;;;;;-1.00;97.16;101082.91;5135200;27;20108;-85
2022/12/12 00:04:33;;;;;;;29.23;15.88;;;;;;;-1.08;96.88;101068.81;5154710;27;20107;-85
2022/12/12 00:06:58;;;;;;;25.70;15.55;;;;;;;-1.13;96.93;101075.59;5140966;27;20022;-85
2022/12/12 00:09:24;;;;;;;24.95;15.13;;;;;;;-1.19;97.08;101078.88;5126348;27;20098;-86
2022/12/12 00:11:50;;;;;;;28.58;16.00;;;;;;;-1.28;96.85;101083.81;5121814;27;20027;-85
2022/12/12 00:14:16;;;;;;;26.70;14.68;;;;;;;-1.31;96.77;101086.31;5122794;27;20062;-85
2022/12/12 00:16:42;;;;;;;31.92;16.58;;;;;;;-1.38;97.14;101076.59;5153764;27;20830;-85
2022/12/12 00:19:07;;;;;;;26.13;15.73;;;;;;;-1.44;97.00;101077.25;5115282;27;20448;-85
2022/12/12 00:21:33;;;;;;;27.00;14.55;;;;;;;-1.46;96.87;101080.63;5153718;27;20524;-85
2022/12/12 00:23:58;;;;;;;29.77;15.45;;;;;;;-1.50;96.89;101079.69;5135317;27;20062;-84
2022/12/12 00:26:30;;;;;;;25.45;14.57;;;;;;;-1.59;96.80;101079.38;5155564;27;20106;-84
2022/12/12 00:28:57;;;;;;;27.50;15.52;;;;;;;-1.67;96.74;101086.06;5156840;27;20030;-84
2022/12/12 00:31:22;;;;;;;24.20;13.98;;;;;;;-1.73;97.32;101085.03;5135579;27;20030;-84
2022/12/12 00:33:49;;;;;;;29.45;13.70;;;;;;;-1.78;97.20;101093.50;5136163;27;20050;-84
2022/12/12 00:36:22;;;;;;;29.83;15.57;;;;;;;-1.87;96.96;101088.03;5135973;27;20038;-85
2022/12/12 00:38:47;;;;;;;24.80;14.02;;;;;;;-1.90;97.24;101088.81;5152797;27;20035;-84
2022/12/12 00:41:14;;;;;;;28.52;15.50;;;;;;;-1.96;97.71;101093.78;5149749;27;20046;-84
2022/12/12 00:43:39;;;;;;;30.45;15.85;;;;;;;-2.02;97.56;101098.78;5128662;27;20029;-84
2022/12/12 00:46:05;;;;;;;26.50;15.00;;;;;;;-2.11;97.18;101096.75;5156159;27;20369;-84
2022/12/12 00:48:31;;;;;;;23.98;14.43;;;;;;;-2.19;97.03;101093.91;5132016;27;20060;-84
2022/12/12 00:50:57;;;;;;;28.00;15.32;;;;;;;-2.26;96.85;101096.22;5151332;27;20031;-84
2022/12/12 00:53:23;;;;;;;24.48;13.57;;;;;;;-2.29;97.34;101098.72;5134401;27;20026;-84
2022/12/12 00:55:58;;;;;;;26.25;13.98;;;;;;;-2.33;97.58;101095.13;5146595;27;20024;-84
2022/12/12 00:58:25;;;;;;;29.10;14.40;;;;;;;-2.37;97.39;101093.28;5117777;27;20551;-84
2022/12/12 01:00:51;;;;;;;30.60;15.80;;;;;;;-2.39;97.61;101097.53;5154560;27;20385;-83
2022/12/12 01:03:17;;;;;;;23.33;13.55;;;;;;;-2.42;98.14;101097.44;5148844;27;20078;-83
2022/12/12 01:05:44;;;;;;;24.23;13.57;;;;;;;-2.46;98.24;101099.00;5132218;27;20023;-83
2022/12/12 01:08:10;;;;;;;26.20;14.90;;;;;;;-2.50;98.40;101097.13;5137471;27;20042;-84
2022/12/12 01:10:35;;;;;;;25.83;14.32;;;;;;;-2.50;98.51;101104.03;5152713;27;20482;-84
2022/12/12 01:13:01;;;;;;;29.20;15.27;;;;;;;-2.57;98.65;101102.97;5154608;27;20442;-84
2022/12/12 01:15:27;;;;;;;28.98;14.75;;;;;;;-2.58;99.04;101110.66;5136422;27;20110;-83
2022/12/12 01:17:53;;;;;;;30.58;14.57;;;;;;;-2.63;98.94;101108.78;5151535;27;20110;-83
2022/12/12 01:20:22;;;;;;;28.90;14.55;;;;;;;-2.65;98.96;101113.03;5099260;27;20038;-84
2022/12/12 01:22:48;;;;;;;30.85;15.95;;;;;;;-2.68;99.50;101120.69;5149949;27;20458;-84
2022/12/12 01:25:15;;;;;;;28.85;15.60;;;;;;;-2.71;99.43;101125.78;5136633;27;20041;-84
2022/12/12 01:27:41;;;;;;;27.60;14.48;;;;;;;-2.75;99.31;101123.91;5155179;27;20107;-84
2022/12/12 01:30:10;;;;;;;29.02;16.15;;;;;;;-2.74;99.59;101124.81;5134374;27;20035;-84
2022/12/12 01:32:36;;;;;;;28.10;15.48;;;;;;;-2.77;100.00;101125.53;5136994;27;20027;-84
2022/12/12 01:35:06;;;;;;;29.17;16.42;;;;;;;-2.78;100.00;101131.56;5119541;27;20049;-84
2022/12/12 01:37:31;;;;;;;31.90;16.77;;;;;;;-2.81;100.00;101129.75;5135499;27;20046;-84
2022/12/12 01:39:57;;;;;;;28.63;15.80;;;;;;;-2.78;100.00;101141.06;5122938;27;20031;-83
2022/12/12 01:42:22;;;;;;;30.45;16.02;;;;;;;-2.78;100.00;101138.47;5136214;27;20514;-84
2022/12/12 01:44:51;;;;;;;27.00;15.05;;;;;;;-2.78;100.00;101136.75;5152240;27;20057;-84
2022/12/12 01:47:19;;;;;;;28.27;15.25;;;;;;;-2.77;100.00;101138.50;5133929;27;20469;-83
2022/12/12 01:49:50;;;;;;;32.10;15.57;;;;;;;-2.80;100.00;101138.41;5152343;27;20474;-84
2022/12/12 01:52:20;;;;;;;32.80;15.77;;;;;;;-2.81;100.00;101144.41;5150484;27;20030;-84
2022/12/12 01:54:53;;;;;;;29.95;14.88;;;;;;;-2.86;100.00;101143.38;5129441;27;20038;-83
2022/12/12 01:57:29;;;;;;;30.55;16.20;;;;;;;-2.84;100.00;101154.69;5154111;27;20066;-84
2022/12/12 01:59:54;;;;;;;35.58;15.88;;;;;;;-2.88;100.00;101156.25;5154412;27;20397;-83
2022/12/12 02:02:20;;;;;;;34.75;16.65;;;;;;;-2.93;100.00;101142.25;5153418;27;20029;-84
2022/12/12 02:04:46;;;;;;;24.92;14.90;;;;;;;-2.93;100.00;101151.75;5136283;27;20045;-84
2022/12/12 02:07:11;;;;;;;28.77;15.07;;;;;;;-2.95;100.00;101151.66;5131908;27;20490;-84
2022/12/12 02:09:37;;;;;;;31.77;16.45;;;;;;;-2.95;100.00;101154.25;5150001;27;20106;-83
2022/12/12 02:12:03;;;;;;;27.23;15.55;;;;;;;-2.94;100.00;101161.22;5130565;27;20358;-84
2022/12/12 02:14:33;;;;;;;31.58;15.55;;;;;;;-2.96;100.00;101149.91;5135485;27;20041;-84
2022/12/12 02:17:04;;;;;;;30.92;15.43;;;;;;;-2.95;100.00;101158.56;5135342;27;20054;-84
2022/12/12 02:19:48;;;;;;;29.85;15.45;;;;;;;-2.96;100.00;101159.41;5112716;27;20027;-84
2022/12/12 02:22:42;;;;;;;30.13;15.02;;;;;;;-2.97;100.00;101161.09;5148987;27;20034;-84
2022/12/12 02:25:29;;;;;;;31.23;16.00;;;;;;;-2.99;100.00;101157.56;5131888;27;20470;-84
2022/12/12 02:28:20;;;;;;;31.80;15.13;;;;;;;-2.97;100.00;101167.97;5133618;27;20500;-84
2022/12/12 02:31:16;;;;;;;29.27;14.20;;;;;;;-2.98;100.00;101163.63;5101788;27;20137;-84
2022/12/12 02:34:14;;;;;;;27.67;14.57;;;;;;;-3.03;100.00;101159.16;5148158;27;20113;-84
2022/12/12 02:37:13;;;;;;;30.35;15.30;;;;;;;-3.04;100.00;101157.41;5114366;27;20043;-84
2022/12/12 02:39:42;;;;;;;25.95;13.88;;;;;;;-3.05;100.00;101160.78;5130690;27;20034;-84
2022/12/12 02:42:21;;;;;;;32.85;14.55;;;;;;;-3.05;100.00;101165.09;5132902;27;20407;-84
2022/12/12 02:44:53;;;;;;;26.92;14.20;;;;;;;-3.08;100.00;101159.81;5148699;27;20033;-84
2022/12/12 02:47:25;;;;;;;33.10;16.55;;;;;;;-3.07;100.00;101165.03;5150752;27;20023;-84
2022/12/12 02:49:57;;;;;;;25.40;14.48;;;;;;;-3.08;100.00;101155.50;5134559;27;20035;-83
2022/12/12 02:52:23;;;;;;;29.67;15.23;;;;;;;-3.08;100.00;101155.50;5134086;27;20477;-84
2022/12/12 02:54:49;;;;;;;29.70;15.82;;;;;;;-3.09;100.00;101155.44;5133644;27;20064;-83
2022/12/12 02:57:25;;;;;;;30.77;15.75;;;;;;;-3.08;100.00;101157.22;5116490;27;20054;-84
2022/12/12 03:00:10;;;;;;;31.25;16.90;;;;;;;-3.10;100.00;101151.97;5131922;27;20494;-83
2022/12/12 03:09:35;;;;;;;27.90;14.75;;;;;;;-3.16;100.00;101153.47;5131115;27;20030;-83
2022/12/12 03:12:04;;;;;;;33.60;16.02;;;;;;;-3.19;100.00;101154.22;5134012;27;20030;-84
2022/12/12 03:14:47;;;;;;;37.45;16.52;;;;;;;-3.20;100.00;101156.75;5151137;27;20022;-83
2022/12/12 03:17:36;;;;;;;34.35;16.02;;;;;;;-3.25;100.00;101156.56;5140364;27;20062;-83
2022/12/12 03:20:07;;;;;;;31.50;15.55;;;;;;;-3.27;100.00;101160.78;5146662;27;20577;-83
2022/12/12 03:22:48;;;;;;;29.60;15.45;;;;;;;-3.31;100.00;101157.22;5145392;27;20031;-83
2022/12/12 03:25:22;;;;;;;27.15;14.30;;;;;;;-3.34;100.00;101164.88;5135130;27;20382;-83
2022/12/12 03:28:00;;;;;;;30.42;15.70;;;;;;;-3.37;100.00;101154.38;5144668;27;20038;-83
2022/12/12 03:30:29;;;;;;;26.63;15.30;;;;;;;-3.42;100.00;101153.31;5145199;27;20096;-83
2022/12/12 03:33:01;;;;;;;29.02;16.67;;;;;;;-3.43;100.00;101154.13;5145625;27;20485;-83
2022/12/12 03:35:45;;;;;;;37.45;16.38;;;;;;;-3.44;100.00;101152.34;5130722;27;20054;-83
2022/12/12 03:38:19;;;;;;;29.48;14.50;;;;;;;-3.49;100.00;101156.47;5145024;27;20363;-82
2022/12/12 03:40:54;;;;;;;27.85;15.65;;;;;;;-3.53;100.00;101157.19;5150430;27;20026;-82
2022/12/12 03:43:28;;;;;;;33.13;16.23;;;;;;;-3.58;100.00;101162.19;5147358;27;20451;-82
2022/12/12 03:46:24;;;;;;;28.15;14.43;;;;;;;-3.61;100.00;101164.66;5145890;27;20035;-82
2022/12/12 03:49:01;;;;;;;32.70;14.38;;;;;;;-3.64;100.00;101163.63;5131927;27;20038;-82
2022/12/12 03:51:29;;;;;;;37.17;16.80;;;;;;;-3.70;100.00;101156.50;5149506;27;20585;-82
2022/12/12 03:54:06;;;;;;;33.13;16.63;;;;;;;-3.74;100.00;101154.59;5151123;27;20029;-82
2022/12/12 03:56:38;;;;;;;33.50;17.15;;;;;;;-3.75;100.00;101163.19;5123563;27;20382;-83
2022/12/12 03:59:15;;;;;;;29.90;14.25;;;;;;;-3.77;100.00;101159.66;5153474;27;20027;-83
2022/12/12 04:01:51;;;;;;;32.38;15.32;;;;;;;-3.83;100.00;101161.97;5151125;27;20034;-82
2022/12/12 04:04:26;;;;;;;28.80;14.15;;;;;;;-3.85;100.00;101169.69;5152328;27;20034;-82
2022/12/12 04:07:01;;;;;;;30.92;16.33;;;;;;;-3.86;100.00;101159.25;5134229;27;20100;-82
2022/12/12 04:15:18;;;;;;;34.70;14.75;;;;;;;-3.94;100.00;101177.94;5154933;27;20074;-82
2022/12/12 04:17:59;;;;;;;30.70;14.73;;;;;;;-3.98;100.00;101173.47;5137767;27;20026;-82
2022/12/12 04:23:33;;;;;;;26.67;14.85;;;;;;;-4.03;100.00;101177.56;5151448;27;20280;-81
2022/12/12 04:29:26;;;;;;;27.65;14.70;;;;;;;-4.07;100.00;101180.84;5137897;27;20045;-81
2022/12/12 04:32:07;;;;;;;30.90;15.77;;;;;;;-4.10;100.00;101175.53;5127720;27;20080;-82
2022/12/12 04:34:50;;;;;;;25.25;13.27;;;;;;;-4.12;100.00;101184.94;5127219;27;20474;-81
2022/12/12 04:37:21;;;;;;;26.98;14.02;;;;;;;-4.16;100.00;101183.88;5146436;27;20168;-81
2022/12/12 04:39:50;;;;;;;26.67;13.65;;;;;;;-4.16;100.00;101185.59;5144719;27;20043;-81
2022/12/12 04:42:20;;;;;;;30.33;16.15;;;;;;;-4.19;100.00;101201.00;5123413;27;20496;-81
2022/12/12 04:44:47;;;;;;;29.73;14.30;;;;;;;-4.21;100.00;101200.03;5124975;27;20496;-81
2022/12/12 04:47:14;;;;;;;28.38;14.27;;;;;;;-4.28;100.00;101203.16;5123344;27;20064;-81
2022/12/12 04:49:43;;;;;;;27.63;14.18;;;;;;;-4.32;100.00;101197.88;5135362;27;20046;-81
2022/12/12 04:52:12;;;;;;;33.90;15.95;;;;;;;-4.34;100.00;101203.78;5135344;27;20470;-81
2022/12/12 04:54:51;;;;;;;31.77;15.27;;;;;;;-4.37;100.00;101195.91;5131418;27;20052;-81
2022/12/12 04:57:23;;;;;;;34.10;16.95;;;;;;;-4.41;100.00;101197.44;5116628;27;20031;-81
2022/12/12 04:59:48;;;;;;;24.23;13.27;;;;;;;-4.40;100.00;101198.34;5141640;27;20110;-81
2022/12/12 05:02:17;;;;;;;29.75;13.88;;;;;;;-4.42;100.00;101193.13;5119905;27;20118;-81
2022/12/12 05:04:57;;;;;;;26.33;14.70;;;;;;;-4.44;100.00;101193.88;5137604;27;20424;-81
2022/12/12 05:07:41;;;;;;;32.35;15.82;;;;;;;-4.49;100.00;101188.47;5120049;27;20466;-81
2022/12/12 05:10:12;;;;;;;28.95;15.15;;;;;;;-4.49;100.00;101197.94;5116683;27;20062;-81
2022/12/12 05:12:48;;;;;;;26.40;15.27;;;;;;;-4.53;100.00;101191.75;5135001;27;20076;-81
2022/12/12 05:15:16;;;;;;;27.80;14.90;;;;;;;-4.59;100.00;101194.06;5140630;27;20031;-81
2022/12/12 05:17:45;;;;;;;25.58;14.40;;;;;;;-4.55;100.00;101193.38;5125457;27;20062;-81
2022/12/12 05:20:12;;;;;;;30.42;14.40;;;;;;;-4.56;100.00;101187.31;5120187;27;20034;-81
2022/12/12 05:22:38;;;;;;;26.42;13.98;;;;;;;-4.54;100.00;101189.97;5145091;27;20363;-80
2022/12/12 05:25:04;;;;;;;27.48;13.55;;;;;;;-4.54;100.00;101189.97;5112216;27;20034;-80
2022/12/12 05:27:29;;;;;;;30.38;15.73;;;;;;;-4.54;100.00;101187.41;5124711;27;20038;-80
2022/12/12 05:29:54;;;;;;;35.28;15.85;;;;;;;-4.62;100.00;101174.13;5116278;27;20084;-81
2022/12/12 05:32:20;;;;;;;30.30;15.60;;;;;;;-4.55;100.00;101190.78;5155533;27;20436;-81
2022/12/12 05:34:45;;;;;;;30.63;14.85;;;;;;;-4.55;100.00;101191.69;5115603;27;20042;-81
2022/12/12 05:37:11;;;;;;;32.25;15.48;;;;;;;-4.54;100.00;101203.78;5134188;27;20131;-81
2022/12/12 05:39:36;;;;;;;32.83;17.27;;;;;;;-4.53;100.00;101207.25;5105834;27;20031;-80
2022/12/12 05:42:02;;;;;;;31.35;15.80;;;;;;;-4.53;100.00;101200.38;5116062;27;20406;-81
2022/12/12 05:44:28;;;;;;;36.75;18.27;;;;;;;-4.54;100.00;101210.66;5134522;27;20038;-80
2022/12/12 05:46:53;;;;;;;30.65;16.05;;;;;;;-4.55;100.00;101209.78;5134288;27;20027;-80
2022/12/12 05:49:19;;;;;;;29.08;15.77;;;;;;;-4.57;100.00;101206.25;5130460;27;20177;-80
2022/12/12 05:51:44;;;;;;;34.85;16.25;;;;;;;-4.59;100.00;101207.88;5116349;27;20031;-81
2022/12/12 05:54:10;;;;;;;29.92;15.43;;;;;;;-4.59;100.00;101215.63;5138540;27;20025;-80
2022/12/12 05:56:35;;;;;;;32.05;15.13;;;;;;;-4.62;100.00;101214.59;5132917;27;20038;-80
2022/12/12 05:59:01;;;;;;;28.77;15.52;;;;;;;-4.66;100.00;101217.84;5130439;27;20050;-80
2022/12/12 06:01:26;;;;;;;28.05;15.77;;;;;;;-4.70;100.00;101218.53;5120191;27;20026;-80
2022/12/12 06:03:52;;;;;;;29.65;14.98;;;;;;;-4.73;100.00;101219.25;5120546;27;20028;-80
2022/12/12 06:06:18;;;;;;;32.13;15.20;;;;;;;-4.74;100.00;101214.03;5115451;27;20095;-80
2022/12/12 06:08:44;;;;;;;28.25;14.90;;;;;;;-4.76;100.00;101216.53;5106989;27;20525;-80
2022/12/12 06:11:09;;;;;;;31.77;15.68;;;;;;;-4.78;100.00;101211.28;5133678;27;20390;-80
2022/12/12 06:13:36;;;;;;;27.30;12.98;;;;;;;-4.79;100.00;101211.25;5098335;27;20031;-80
2022/12/12 06:16:10;;;;;;;29.17;14.90;;;;;;;-4.83;100.00;101215.38;5146149;27;20023;-80
2022/12/12 06:18:35;;;;;;;26.95;14.25;;;;;;;-4.87;100.00;101210.91;5115083;27;20039;-80
2022/12/12 06:21:09;;;;;;;23.00;11.55;;;;;;;-4.87;100.00;101216.06;5121265;27;20030;-80
2022/12/12 06:23:39;;;;;;;29.25;15.98;;;;;;;-4.88;100.00;101226.31;5133501;27;20124;-80
2022/12/12 06:26:06;;;;;;;26.52;13.35;;;;;;;-4.88;100.00;101218.56;5098658;27;20039;-80
2022/12/12 06:28:31;;;;;;;28.42;14.63;;;;;;;-4.91;100.00;101221.88;5133452;27;20047;-80
2022/12/12 06:30:57;;;;;;;30.13;14.45;;;;;;;-4.90;100.00;101228.81;5142490;27;20085;-80
2022/12/12 06:33:24;;;;;;;29.60;15.15;;;;;;;-4.89;100.00;101229.72;5135162;27;20049;-80
2022/12/12 06:36:07;;;;;;;27.13;14.15;;;;;;;-4.87;100.00;101228.06;5104460;27;20027;-80
2022/12/12 06:38:34;;;;;;;35.28;17.15;;;;;;;-4.86;100.00;101232.44;5116366;27;20453;-80
2022/12/12 06:41:04;;;;;;;31.48;16.85;;;;;;;-4.87;100.00;101228.97;5112869;28;20479;-80
2022/12/12 06:43:30;;;;;;;30.27;15.83;;;;;;;-4.88;100.00;101234.06;5112818;28;20039;-80
2022/12/12 06:46:00;;;;;;;32.47;15.13;;;;;;;-4.91;100.00;101232.22;5128346;27;20072;-80
2022/12/12 06:48:25;;;;;;;31.47;15.73;;;;;;;-4.90;100.00;101240.84;5111292;27;20039;-80
2022/12/12 06:50:51;;;;;;;29.75;15.27;;;;;;;-4.92;100.00;101240.81;5094588;28;20394;-80
2022/12/12 06:53:16;;;;;;;28.15;14.27;;;;;;;-4.92;100.00;101242.47;5111855;28;20080;-80
2022/12/12 06:55:42;;;;;;;33.05;16.73;;;;;;;-4.96;100.00;101241.47;5126621;28;20089;-80
2022/12/12 06:58:09;;;;;;;30.20;14.93;;;;;;;-4.97;100.00;101252.59;5111510;28;20023;-80
2022/12/12 07:00:34;;;;;;;30.10;14.82;;;;;;;-5.02;100.00;101248.91;5111172;28;20391;-80
2022/12/12 07:03:00;;;;;;;25.65;13.77;;;;;;;-5.02;100.00;101257.56;5128994;28;20039;-80
2022/12/12 07:05:25;;;;;;;33.38;14.68;;;;;;;-5.05;100.00;101253.91;5133012;27;20100;-80
2022/12/12 07:07:51;;;;;;;37.25;15.52;;;;;;;-5.07;100.00;101252.97;5125317;28;20508;-80
2022/12/12 07:10:17;;;;;;;30.60;15.48;;;;;;;-5.07;100.00;101255.53;5122565;27;20046;-80
2022/12/12 07:12:43;;;;;;;32.03;15.95;;;;;;;-5.09;100.00;101257.19;5111282;28;20452;-81
2022/12/12 07:15:09;;;;;;;40.85;16.80;;;;;;;-5.07;100.00;101266.78;5111345;28;20023;-80
2022/12/12 07:17:34;;;;;;;32.88;14.35;;;;;;;-5.11;100.00;101264.84;5121799;28;20433;-80
2022/12/12 07:20:00;;;;;;;33.20;13.52;;;;;;;-5.08;100.00;101272.75;5126148;27;20079;-80
2022/12/12 07:22:25;;;;;;;34.50;15.35;;;;;;;-5.11;100.00;101275.19;5124055;28;20035;-80
2022/12/12 07:24:51;;;;;;;27.80;13.88;;;;;;;-5.11;100.00;101280.34;5111251;28;20042;-80
2022/12/12 07:27:17;;;;;;;30.95;16.02;;;;;;;-5.12;100.00;101280.25;5083329;28;20495;-80
2022/12/12 07:29:43;;;;;;;35.30;15.50;;;;;;;-5.14;100.00;101281.88;5133064;27;20542;-80
2022/12/12 07:32:09;;;;;;;35.00;15.55;;;;;;;-5.15;100.00;101277.53;5132897;27;20039;-80
2022/12/12 07:34:35;;;;;;;32.47;15.52;;;;;;;-5.17;100.00;101285.19;5135491;27;20114;-80
2022/12/12 07:37:00;;;;;;;27.73;14.00;;;;;;;-5.21;100.00;101284.19;5136078;27;20577;-80
2022/12/12 07:39:29;;;;;;;36.60;14.88;;;;;;;-5.19;100.00;101279.09;5135456;27;20031;-80
2022/12/12 07:41:54;;;;;;;29.90;15.73;;;;;;;-5.18;100.00;101291.19;5154017;27;20025;-80
2022/12/12 07:44:20;;;;;;;28.60;14.60;;;;;;;-5.19;100.00;101292.88;5153388;27;20027;-80
2022/12/12 07:46:45;;;;;;;28.20;14.23;;;;;;;-5.18;100.00;101288.59;5134980;27;20019;-80
2022/12/12 07:49:10;;;;;;;33.95;16.13;;;;;;;-5.20;100.00;101287.63;5155509;27;20049;-80
2022/12/12 07:51:37;;;;;;;36.10;15.45;;;;;;;-5.23;100.00;101283.22;5137582;27;20027;-80
2022/12/12 07:54:03;;;;;;;34.78;18.17;;;;;;;-5.25;100.00;101287.41;5153899;27;20137;-80
2022/12/12 07:56:29;;;;;;;68.78;23.60;;;;;;;-5.27;100.00;101283.84;5136816;27;20037;-81
2022/12/12 07:58:54;;;;;;;65.85;26.27;;;;;;;-5.25;100.00;101291.69;5138424;27;20473;-80
2022/12/12 08:01:25;;;;;;;53.03;24.77;;;;;;;-5.21;100.00;101291.03;5116628;27;20061;-80
2022/12/12 08:03:53;;;;;;;39.05;17.80;;;;;;;-5.15;100.00;101295.63;5154177;27;20046;-80
2022/12/12 08:06:20;;;;;;;29.98;14.38;;;;;;;-5.10;100.00;101300.19;5151657;27;20018;-80
2022/12/12 08:08:47;;;;;;;36.33;15.50;;;;;;;-5.09;100.00;101296.81;5146848;27;20031;-80
2022/12/12 08:11:14;;;;;;;34.05;15.80;;;;;;;-5.07;100.00;101299.44;5153318;27;20031;-80
2022/12/12 08:13:40;;;;;;;36.78;15.73;;;;;;;-5.05;100.00;101298.72;5152720;27;20040;-80
2022/12/12 08:16:11;;;;;;;32.63;16.73;;;;;;;-4.98;100.00;101313.69;5154840;27;20035;-80
2022/12/12 08:18:36;;;;;;;34.78;16.55;;;;;;;-4.92;100.00;101301.88;5154243;27;20038;-80
2022/12/12 08:21:06;;;;;;;35.00;14.13;;;;;;;-4.91;100.00;101301.97;5153980;27;20022;-78
2022/12/12 08:23:32;;;;;;;34.47;14.88;;;;;;;-4.85;100.00;101310.00;5117418;27;20822;-79
2022/12/12 08:26:03;;;;;;;35.55;15.90;;;;;;;-4.79;100.00;101310.31;5134652;27;20022;-79
2022/12/12 08:28:29;;;;;;;37.03;14.30;;;;;;;-4.74;100.00;101309.66;5132443;27;20023;-79
2022/12/12 08:30:54;;;;;;;32.08;14.85;;;;;;;-4.68;100.00;101318.56;5135646;27;20446;-79
2022/12/12 08:33:20;;;;;;;37.15;15.95;;;;;;;-4.65;100.00;101318.72;5132132;27;20054;-79
2022/12/12 08:35:46;;;;;;;32.75;15.10;;;;;;;-4.64;100.00;101317.91;5155117;27;20027;-79
2022/12/12 08:38:12;;;;;;;31.33;14.50;;;;;;;-4.61;100.00;101318.03;5137163;27;20049;-79
2022/12/12 08:40:38;;;;;;;25.50;14.70;;;;;;;-4.55;100.00;101320.00;5135850;27;20030;-79
2022/12/12 08:43:03;;;;;;;33.10;14.68;;;;;;;-4.53;100.00;101327.03;5155935;27;20496;-79
2022/12/12 08:45:29;;;;;;;29.65;13.88;;;;;;;-4.45;100.00;101327.41;5150965;27;20367;-79
2022/12/12 08:47:54;;;;;;;40.97;14.98;;;;;;;-4.43;100.00;101324.88;5155546;27;20022;-79
2022/12/12 08:50:20;;;;;;;36.22;15.70;;;;;;;-4.38;100.00;101323.38;5155331;27;20031;-78
2022/12/12 08:52:45;;;;;;;32.95;15.35;;;;;;;-4.35;100.00;101321.84;5154518;27;20038;-79
2022/12/12 08:55:11;;;;;;;33.42;15.07;;;;;;;-4.32;100.00;101326.28;5155090;27;20031;-79
2022/12/12 08:57:36;;;;;;;38.60;16.08;;;;;;;-4.32;100.00;101319.41;5134617;27;20027;-79
2022/12/12 09:00:03;;;;;;;33.45;15.52;;;;;;;-4.27;100.00;101323.91;5155500;27;20030;-79
2022/12/12 09:02:29;;;;;;;35.40;16.92;;;;;;;-4.24;100.00;101334.38;5131954;27;20027;-79
2022/12/12 09:04:54;;;;;;;34.58;15.60;;;;;;;-4.21;100.00;101334.50;5153313;27;20038;-79
2022/12/12 09:07:20;;;;;;;35.42;15.27;;;;;;;-4.17;100.00;101337.31;5133166;27;20019;-79
2022/12/12 09:09:45;;;;;;;33.67;14.02;;;;;;;-4.12;100.00;101338.41;5155373;27;20070;-79
2022/12/12 09:12:11;;;;;;;30.65;15.05;;;;;;;-4.06;100.00;101331.72;5135218;27;20056;-79
2022/12/12 09:14:36;;;;;;;39.60;15.77;;;;;;;-4.00;100.00;101342.38;5116674;27;20066;-79
2022/12/12 09:17:02;;;;;;;39.63;16.02;;;;;;;-3.96;100.00;101336.50;5132162;27;20034;-79
2022/12/12 09:19:27;;;;;;;36.78;16.30;;;;;;;-3.92;100.00;101331.53;5117767;27;20031;-79
2022/12/12 09:21:53;;;;;;;35.05;15.32;;;;;;;-3.89;100.00;101333.38;5155230;27;20137;-79
2022/12/12 09:24:18;;;;;;;39.60;15.57;;;;;;;-3.84;100.00;101336.16;5136124;27;20018;-80
2022/12/12 09:26:44;;;;;;;36.13;16.05;;;;;;;-3.75;100.00;101341.75;5136534;27;20105;-80
2022/12/12 09:29:10;;;;;;;31.83;13.95;;;;;;;-3.70;100.00;101327.31;5156099;27;20034;-80
2022/12/12 09:31:35;;;;;;;33.50;15.45;;;;;;;-3.67;100.00;101332.63;5136991;27;20087;-80
2022/12/12 09:34:01;;;;;;;32.05;15.88;;;;;;;-3.60;100.00;101332.06;5119063;27;20030;-80
2022/12/12 09:36:26;;;;;;;39.88;15.57;;;;;;;-3.54;100.00;101334.91;5119112;27;20030;-76
2022/12/12 09:38:52;;;;;;;29.42;14.88;;;;;;;-3.52;100.00;101333.28;5130746;27;20079;-76
2022/12/12 09:41:25;;;;;;;36.47;16.40;;;;;;;-3.49;100.00;101330.84;5135240;27;20052;-76
2022/12/12 09:44:09;;;;;;;40.22;16.42;;;;;;;-3.43;99.74;101330.22;5133238;27;20049;-76
2022/12/12 09:46:39;;;;;;;37.15;18.52;;;;;;;-3.39;99.52;101326.91;5152422;27;20026;-76
2022/12/12 09:49:23;;;;;;;34.47;14.85;;;;;;;-3.34;99.56;101325.44;5128004;27;20015;-76
2022/12/12 09:51:53;;;;;;;32.58;14.70;;;;;;;-3.27;99.81;101322.25;5116219;27;20037;-76
2022/12/12 09:54:21;;;;;;;39.25;15.20;;;;;;;-3.23;99.64;101315.50;5114927;27;20027;-77
2022/12/12 09:57:05;;;;;;;36.85;14.90;;;;;;;-3.16;99.31;101325.31;5134604;27;20470;-77
2022/12/12 09:59:30;;;;;;;36.80;17.17;;;;;;;-3.12;98.33;101321.13;5151920;27;20510;-77
2022/12/12 10:02:08;;;;;;;33.80;14.23;;;;;;;-3.05;99.21;101325.75;5133538;27;20050;-77
2022/12/12 10:04:58;;;;;;;34.75;15.00;;;;;;;-2.98;98.65;101314.81;5132268;27;20053;-77
2022/12/12 10:07:33;;;;;;;31.83;14.20;;;;;;;-2.88;99.03;101321.25;5153398;27;20035;-77
2022/12/12 10:10:31;;;;;;;34.40;16.02;;;;;;;-2.78;99.21;101317.31;5151434;27;20040;-77
2022/12/12 10:13:00;;;;;;;38.38;14.25;;;;;;;-2.72;98.48;101322.72;5134484;27;20457;-77
2022/12/12 10:15:45;;;;;;;27.75;13.10;;;;;;;-2.66;98.03;101326.47;5132973;27;20014;-77
2022/12/12 10:18:23;;;;;;;32.22;15.15;;;;;;;-2.60;96.81;101321.53;5152107;27;20489;-77
2022/12/12 10:20:52;;;;;;;27.73;13.32;;;;;;;-2.55;96.66;101326.00;5116768;27;20062;-76
2022/12/12 10:23:31;;;;;;;29.85;13.05;;;;;;;-2.48;96.90;101323.69;5153439;27;20024;-76
2022/12/12 10:26:24;;;;;;;33.90;14.23;;;;;;;-2.42;96.63;101318.75;5125281;27;20027;-77
2022/12/12 10:28:56;;;;;;;29.85;13.73;;;;;;;-2.41;95.89;101319.63;5117067;27;20191;-76
2022/12/12 10:31:53;;;;;;;25.65;10.52;;;;;;;-2.35;96.08;101318.97;5127361;27;20508;-77
2022/12/12 10:34:34;;;;;;;29.60;13.48;;;;;;;-2.30;96.04;101315.75;5098823;27;20098;-77
2022/12/12 10:37:21;;;;;;;30.65;14.05;;;;;;;-2.28;95.64;101314.06;5116051;27;20034;-77
2022/12/12 10:40:12;;;;;;;30.48;13.80;;;;;;;-2.25;93.62;101305.53;5133302;27;20043;-77
2022/12/12 10:43:07;;;;;;;31.92;14.05;;;;;;;-2.23;94.36;101301.28;5124855;27;20075;-77
2022/12/12 10:46:08;;;;;;;29.92;13.15;;;;;;;-2.17;94.82;101301.53;5129127;27;20027;-77
2022/12/12 10:48:34;;;;;;;31.48;12.85;;;;;;;-2.12;94.79;101305.19;5047596;28;20043;-77
2022/12/12 10:51:04;;;;;;;37.00;13.63;;;;;;;-2.06;94.87;101302.78;5106560;27;20039;-77
2022/12/12 10:53:31;;;;;;;36.23;13.43;;;;;;;-2.04;95.05;101285.56;5139081;27;20023;-76
2022/12/12 10:56:03;;;;;;;28.17;12.82;;;;;;;-1.95;94.94;101295.41;5127222;28;20042;-77
2022/12/12 10:58:41;;;;;;;34.10;12.68;;;;;;;-1.90;94.84;101290.38;5114509;27;20097;-76
2022/12/12 11:01:19;;;;;;;26.15;12.23;;;;;;;-1.85;94.95;101299.22;5116264;27;20050;-77
2022/12/12 11:03:47;;;;;;;24.33;12.48;;;;;;;-1.84;94.52;101301.84;5115925;27;20037;-77
2022/12/12 11:06:25;;;;;;;29.83;12.02;;;;;;;-1.78;93.64;101299.50;5145613;27;20442;-77
2022/12/12 11:08:56;;;;;;;25.88;11.82;;;;;;;-1.77;93.79;101285.69;5140319;27;20088;-77
2022/12/12 11:11:24;;;;;;;28.48;12.32;;;;;;;-1.73;92.25;101286.69;5138533;27;20035;-77
2022/12/12 11:14:19;;;;;;;29.17;13.18;;;;;;;-1.71;90.23;101286.72;5150014;27;20075;-77
2022/12/12 11:16:45;;;;;;;26.15;11.10;;;;;;;-1.71;90.99;101285.00;5137085;27;20023;-77
2022/12/12 11:19:22;;;;;;;24.30;11.32;;;;;;;-1.67;92.22;101286.88;5119904;27;20606;-77
2022/12/12 11:21:48;;;;;;;24.20;12.70;;;;;;;-1.63;89.92;101287.84;5121021;27;20030;-79
2022/12/12 11:24:22;;;;;;;25.98;11.90;;;;;;;-1.60;90.39;101281.06;5101936;27;20090;-79
2022/12/12 11:27:06;;;;;;;24.77;11.65;;;;;;;-1.52;91.29;101282.22;5118270;27;20027;-79
2022/12/12 11:29:47;;;;;;;23.35;11.60;;;;;;;-1.45;92.01;101282.44;5129887;27;20465;-80
2022/12/12 11:32:24;;;;;;;26.05;11.60;;;;;;;-1.37;90.90;101284.44;5137387;27;20132;-80
2022/12/12 11:34:54;;;;;;;26.65;11.48;;;;;;;-1.33;90.38;101277.66;5129617;27;20031;-81
2022/12/12 11:37:23;;;;;;;27.35;12.27;;;;;;;-1.24;90.35;101284.84;5138722;27;20035;-81
2022/12/12 11:39:51;;;;;;;22.75;11.45;;;;;;;-1.21;90.90;101270.25;5126582;27;20038;-81